Bei Facebook empfehlenBei Twitter postenGoogle plusPinterest

Das Wetter im Erzgebirge am 10.01.2015

Wetter und Klima am 10.01.2015 Holzhau im Erzgebirge (630m ü.NN)
Letzte gemessene Temperatur und Uhrzeit der Messung23:45:00 Uhr1.20 °C
Temperatur (Maximum / Höchstwert) und Uhrzeit der Messung11:45:00 Uhr11.80 °C
Temperatur (Minimum / Tiefstwert) und Uhrzeit der Messung23:45:001.20 °C
Errechneter Absolutwert der Temperaturschwankungen zwischen Tmin und Tmax des Tages10.60 K
Errechnete Tagesmitteltemperatur7.56563 °C
Gesamt - Niederschlag des Tages (in flüssiger Form)15.02 Liter / m²
Luftdruck (Maximum / Höchstwert) und Zeitpunkt der Messung23:45:00 Uhr1007.80 hPa
Luftdruck (Minimum / Tiefstwert) und Zeitpunkt der Messung14:00:00 Uhr1001.60 hPa
Errechneter Absolutwert der Luftdruckschwankungen des Tages6.20 hPa
Höchste gemessene Windgeschwindigkeit und Uhrzeit der Messung12:00:00 Uhr43.56 km/h
Errechnete Windhäufigkeit in Relation zu den Messwerten des Tages61.45833 %
Niedrigste Windkühle (Windchill) und Zeitpunkt der Messung20:15:00 Uhr-2.00 °C
Taupunkt (Maximum / Höchstwert) und Uhrzeit der Messung11:30:00 Uhr9.60 °C
Taupunkt (Minimum / Tiefstwert) und Uhrzeit der Messung23:45:00-0.90 °C
Anzahl der automatisch eingelesenen Messwerte 96

Detaillierte Wetter- und Klima- Messwerte für den 10.01.2015 in Holzhau im Erzgebirge (630m ü.NN)
ZeitTemperaturLuftdruckRel. LuftfeuchteWindWindrichtungWindchillTaupunktNiederschlag l/m²
23:45:001.20 °C1007.80 hPa86.00 %5.40 km/hWNW-0.40 °C-0.90 °C15.02
23:30:001.60 °C1007.70 hPa87.00 %-0.30 °C15.02
23:15:001.80 °C1007.40 hPa88.00 %5.04 km/hN0.40 °C0.00 °C15.02
23:00:001.80 °C1007.50 hPa88.00 %0.00 °C15.02
22:45:002.10 °C1007.10 hPa89.00 %0.50 °C15.02
22:30:002.30 °C1006.70 hPa90.00 %4.68 km/hNNW2.30 °C0.80 °C15.02
22:15:002.40 °C1006.70 hPa90.00 %0.90 °C15.02
22:00:002.50 °C1006.50 hPa91.00 %5.04 km/hNNW1.20 °C1.20 °C15.02
21:45:002.50 °C1006.30 hPa91.00 %1.20 °C15.02
21:30:002.40 °C1006.10 hPa91.00 %1.10 °C15.02
21:15:002.50 °C1006.10 hPa91.00 %1.20 °C15.02
21:00:002.90 °C1005.80 hPa91.00 %1.60 °C15.02
20:45:003.50 °C1005.40 hPa91.00 %4.68 km/hW3.50 °C2.20 °C15.02
20:30:003.80 °C1005.40 hPa91.00 %9.72 km/hWNW1.30 °C2.50 °C15.02
20:15:003.60 °C1005.10 hPa89.00 %32.40 km/hNNW-2.00 °C2.00 °C14.50
20:00:004.10 °C1004.80 hPa86.00 %6.84 km/hW2.40 °C2.00 °C13.98
19:45:006.90 °C1004.70 hPa80.00 %3.70 °C13.46
19:30:009.40 °C1001.90 hPa83.00 %6.70 °C11.91
19:15:009.50 °C1001.80 hPa83.00 %15.12 km/hNW7.30 °C6.80 °C11.91
19:00:009.40 °C1002.10 hPa84.00 %12.96 km/hWSW7.40 °C6.80 °C11.39
18:45:009.30 °C1002.20 hPa84.00 %12.96 km/hN7.30 °C6.70 °C11.39
18:30:009.30 °C1002.00 hPa85.00 %14.04 km/hW7.20 °C6.90 °C11.39
18:15:009.10 °C1002.20 hPa86.00 %0.72 km/hWSW9.10 °C6.90 °C11.39
18:00:008.90 °C1002.20 hPa87.00 %20.16 km/hWSW6.00 °C6.90 °C11.39
17:45:008.90 °C1002.40 hPa87.00 %16.92 km/hWNW6.30 °C6.90 °C11.39
17:30:009.20 °C1002.40 hPa85.00 %12.96 km/hNNW7.20 °C6.80 °C11.39
17:15:009.60 °C1002.50 hPa83.00 %6.90 °C11.39
17:00:009.50 °C1002.50 hPa83.00 %33.48 km/hWSW5.70 °C6.80 °C11.39
16:45:009.90 °C1002.50 hPa81.00 %9.00 km/hW8.70 °C6.80 °C11.39
16:30:0010.30 °C1002.30 hPa78.00 %6.60 °C11.39
16:15:0010.30 °C1002.10 hPa78.00 %8.64 km/hW9.20 °C6.60 °C11.39
16:00:0010.40 °C1002.20 hPa78.00 %6.70 °C11.39
15:45:0010.50 °C1002.40 hPa78.00 %6.80 °C11.39
15:30:0010.60 °C1002.90 hPa77.00 %32.40 km/hWSW7.20 °C6.70 °C11.39
15:15:0010.70 °C1002.90 hPa78.00 %7.00 °C11.39
15:00:0010.80 °C1002.70 hPa78.00 %10.44 km/hNW9.50 °C7.10 °C11.39
14:45:0011.10 °C1002.50 hPa78.00 %3.60 km/hNW11.10 °C7.40 °C11.39
14:30:0011.40 °C1002.20 hPa78.00 %7.56 km/hWSW10.70 °C7.70 °C11.39
14:15:0011.50 °C1001.70 hPa78.00 %15.84 km/hWNW9.70 °C7.80 °C11.39
14:00:0011.60 °C1001.60 hPa79.00 %5.40 km/hNW11.50 °C8.10 °C11.39
13:45:0011.40 °C1001.70 hPa81.00 %6.12 km/hW11.10 °C8.30 °C11.39
13:30:0011.20 °C1002.00 hPa82.00 %23.04 km/hWNW8.60 °C8.20 °C11.39
13:15:0010.90 °C1002.50 hPa83.00 %8.10 °C11.39
13:00:0011.00 °C1003.20 hPa83.00 %12.24 km/hW9.50 °C8.20 °C11.39
12:45:0011.20 °C1003.50 hPa83.00 %11.88 km/hNW9.80 °C8.40 °C11.39
12:30:0011.30 °C1003.60 hPa84.00 %11.16 km/hWNW10.00 °C8.70 °C11.39
12:15:0011.40 °C1003.70 hPa83.00 %5.40 km/hWSW11.20 °C8.60 °C11.39
12:00:0011.50 °C1003.80 hPa84.00 %43.56 km/hNW7.80 °C8.90 °C11.39
11:45:0011.80 °C1004.00 hPa86.00 %12.96 km/hSW10.40 °C9.50 °C11.39
11:30:0011.30 °C1004.20 hPa89.00 %13.32 km/hW9.70 °C9.60 °C11.39
11:15:0011.10 °C1004.30 hPa89.00 %7.20 km/hWNW10.50 °C9.40 °C11.39
11:00:0010.80 °C1004.80 hPa91.00 %5.40 km/hSW10.50 °C9.40 °C11.39
10:45:0010.60 °C1005.20 hPa93.00 %14.76 km/hSW8.70 °C9.50 °C11.39
10:30:0010.50 °C1005.10 hPa94.00 %13.32 km/hW8.70 °C9.60 °C11.39
10:15:0010.30 °C1004.90 hPa94.00 %11.88 km/hWNW8.70 °C9.40 °C11.39
10:00:0010.20 °C1005.00 hPa95.00 %7.56 km/hWNW9.30 °C9.40 °C11.39
09:45:009.90 °C1005.20 hPa94.00 %22.32 km/hW7.00 °C9.00 °C11.39
09:30:009.60 °C1004.90 hPa95.00 %9.36 km/hWNW8.30 °C8.80 °C11.39
09:15:009.30 °C1005.00 hPa95.00 %8.50 °C11.39
09:00:009.10 °C1005.10 hPa95.00 %8.30 °C11.39
08:45:008.90 °C1005.50 hPa95.00 %15.84 km/hW6.50 °C8.10 °C11.39
08:30:008.90 °C1005.70 hPa95.00 %17.64 km/hNW6.20 °C8.10 °C11.39
08:15:008.80 °C1005.50 hPa95.00 %8.64 km/hNW7.50 °C8.00 °C11.39
08:00:008.80 °C1005.50 hPa95.00 %10.08 km/hSSO7.20 °C8.00 °C11.39
07:45:008.80 °C1005.70 hPa95.00 %9.72 km/hWNW7.20 °C8.00 °C11.39
07:30:008.80 °C1005.60 hPa95.00 %8.00 °C11.39
07:15:008.70 °C1005.70 hPa95.00 %7.90 °C11.39
07:00:008.40 °C1005.70 hPa95.00 %7.60 °C11.39
06:45:008.30 °C1005.60 hPa95.00 %7.50 °C11.39
06:30:008.20 °C1005.70 hPa95.00 %7.92 km/hSW6.90 °C7.40 °C10.87
06:15:008.10 °C1005.60 hPa95.00 %9.72 km/hNW6.40 °C7.30 °C10.87
06:00:008.10 °C1005.70 hPa95.00 %7.30 °C10.36
05:45:007.90 °C1005.70 hPa95.00 %6.12 km/hWNW7.00 °C7.10 °C9.84
05:30:007.60 °C1005.60 hPa95.00 %4.68 km/hW7.60 °C6.90 °C9.84
05:15:007.40 °C1005.60 hPa94.00 %6.50 °C9.32
05:00:007.30 °C1005.60 hPa94.00 %10.80 km/hNW5.30 °C6.40 °C8.80
04:45:007.10 °C1005.60 hPa94.00 %6.20 °C8.80
04:30:007.00 °C1005.60 hPa94.00 %7.92 km/hSSW5.50 °C6.10 °C7.77
04:15:006.90 °C1005.60 hPa94.00 %6.00 °C7.25
04:00:006.80 °C1005.60 hPa94.00 %12.96 km/hWNW4.30 °C5.90 °C6.73
03:45:006.50 °C1005.70 hPa94.00 %16.56 km/hNW3.40 °C5.60 °C5.69
03:30:006.10 °C1005.50 hPa94.00 %5.20 °C5.18
03:15:005.90 °C1005.50 hPa94.00 %5.00 °C4.66
03:00:005.50 °C1005.50 hPa94.00 %4.60 °C4.14
02:45:005.10 °C1005.60 hPa94.00 %4.68 km/hNW5.10 °C4.20 °C3.62
02:30:004.80 °C1005.90 hPa94.00 %3.90 °C2.59
02:15:004.50 °C1005.90 hPa94.00 %3.60 °C2.59
02:00:004.30 °C1006.10 hPa94.00 %3.40 °C1.55
01:45:004.10 °C1006.30 hPa93.00 %3.10 °C1.55
01:30:003.90 °C1006.30 hPa93.00 %2.90 °C1.03
01:15:003.80 °C1006.70 hPa93.00 %2.80 °C0.51
01:00:003.60 °C1007.00 hPa93.00 %2.60 °C 
00:45:003.60 °C1007.00 hPa92.00 %8.64 km/hNW1.30 °C2.40 °C 
00:30:003.50 °C1007.50 hPa92.00 %2.30 °C 
00:15:003.50 °C1007.60 hPa93.00 %5.40 km/hWSW2.20 °C2.50 °C 
00:00:003.30 °C1007.80 hPa93.00 %6.12 km/hSW1.70 °C2.30 °C 

Permanenter Link zu dieser Seite: Wetter im Erzgebirge am 10.01.2015
Performance-Info: Die Erstellung der Seite / Statistik(en) / Tabelle(n) erforderte 5 Datenbankserver-Abfrage(n) und dauerte 100 Millisekunden. (Dieser Messwert ist von der Gesamt-Auslastung des Servers abhängig.)
Erzgebirge - Wetter | Erzgebirge - Wetter (Mobilgeräte) | Komplette Klimadatenbank